Time;durP1;ratioP1;P1;durP2;ratioP2;P2;SDS_P1;SDS_P2;PMS_P1;PMS_P2;Temp;Humidity;BMP_temperature;BMP_pressure;BME280_temperature;BME280_humidity;BME280_pressure;Samples;Min_cycle;Max_cycle;Signal;HPM_P1;HPM_P2
2022/10/10 00:02:21;;;;;;;21.77;16.67;;;;;;;;;;5059702;28;20207;-62
2022/10/10 00:04:51;;;;;;;22.17;16.97;;;;;;;;;;5056522;28;20214;-62
2022/10/10 00:07:19;;;;;;;18.63;16.63;;;;;;;;;;5057968;28;20232;-62
2022/10/10 00:09:47;;;;;;;21.40;16.80;;;;;;;;;;5058729;28;20217;-62
2022/10/10 00:12:14;;;;;;;24.37;16.70;;;;;;;;;;5063112;28;20660;-61
2022/10/10 00:14:44;;;;;;;19.70;16.00;;;;;;;;;;5056747;28;20329;-61
2022/10/10 00:17:12;;;;;;;20.20;16.53;;;;;;;;;;5051938;28;20294;-61
2022/10/10 00:19:39;;;;;;;24.73;16.40;;;;;;;;;;5063164;28;20962;-62
2022/10/10 00:22:06;;;;;;;18.83;15.53;;;;;;;;;;5067066;28;20283;-61
2022/10/10 00:24:34;;;;;;;18.93;15.70;;;;;;;;;;5060445;28;20204;-61
2022/10/10 00:27:01;;;;;;;20.87;16.50;;;;;;;;;;5059802;28;20226;-62
2022/10/10 00:29:28;;;;;;;22.17;16.37;;;;;;;;;;5054488;28;20844;-62
2022/10/10 00:31:55;;;;;;;19.80;16.73;;;;;;;;;;5056115;28;20585;-63
2022/10/10 00:34:23;;;;;;;22.93;16.70;;;;;;;;;;5068803;28;20206;-62
2022/10/10 00:36:50;;;;;;;21.23;16.47;;;;;;;;;;5059149;28;20232;-62
2022/10/10 00:39:17;;;;;;;17.07;15.07;;;;;;;;;;5053220;28;20655;-62
2022/10/10 00:41:44;;;;;;;17.33;15.30;;;;;;;;;;5062175;28;20255;-63
2022/10/10 00:44:13;;;;;;;18.23;15.07;;;;;;;;;;5048973;28;20224;-63
2022/10/10 00:46:40;;;;;;;20.03;15.13;;;;;;;;;;5056700;28;20249;-63
2022/10/10 00:49:14;;;;;;;20.63;15.13;;;;;;;;;;5055012;28;20251;-62
2022/10/10 00:51:43;;;;;;;18.13;14.77;;;;;;;;;;5059196;28;20210;-63
2022/10/10 00:54:11;;;;;;;18.03;15.10;;;;;;;;;;5057954;28;20202;-63
2022/10/10 00:56:45;;;;;;;21.60;15.07;;;;;;;;;;5064876;28;20265;-63
2022/10/10 00:59:12;;;;;;;17.07;14.53;;;;;;;;;;5055355;28;20209;-63
2022/10/10 01:01:40;;;;;;;16.10;14.33;;;;;;;;;;5059064;28;20581;-62
2022/10/10 01:04:27;;;;;;;20.40;14.60;;;;;;;;;;5048790;28;20292;-63
2022/10/10 01:06:55;;;;;;;19.17;14.00;;;;;;;;;;5049661;28;20272;-62
2022/10/10 01:09:22;;;;;;;17.30;13.47;;;;;;;;;;5057158;28;20687;-61
2022/10/10 01:11:56;;;;;;;17.67;13.73;;;;;;;;;;5050114;28;20214;-62
2022/10/10 01:14:29;;;;;;;16.77;13.63;;;;;;;;;;5059296;28;20719;-63
2022/10/10 01:17:00;;;;;;;18.00;13.43;;;;;;;;;;5052089;28;20695;-62
2022/10/10 01:19:27;;;;;;;17.90;13.47;;;;;;;;;;5058981;28;20205;-63
2022/10/10 01:22:01;;;;;;;18.47;13.87;;;;;;;;;;5053625;28;20775;-62
2022/10/10 01:24:28;;;;;;;18.47;13.93;;;;;;;;;;5056787;28;20216;-61
2022/10/10 01:27:08;;;;;;;15.33;13.73;;;;;;;;;;5054906;28;20284;-61
2022/10/10 01:30:01;;;;;;;14.23;12.20;;;;;;;;;;5059368;28;20288;-63
2022/10/10 01:32:34;;;;;;;15.07;13.20;;;;;;;;;;5051024;28;20286;-62
2022/10/10 01:35:20;;;;;;;14.97;12.63;;;;;;;;;;5059865;28;20244;-63
2022/10/10 01:38:23;;;;;;;16.13;13.00;;;;;;;;;;5046308;28;20252;-64
2022/10/10 01:40:53;;;;;;;15.33;13.23;;;;;;;;;;4990874;28;20203;-63
2022/10/10 01:43:20;;;;;;;18.13;13.03;;;;;;;;;;5040696;28;20220;-62
2022/10/10 01:45:49;;;;;;;14.77;13.03;;;;;;;;;;5059144;28;20296;-62
2022/10/10 01:48:18;;;;;;;19.57;13.73;;;;;;;;;;5048773;28;20751;-61
2022/10/10 01:50:48;;;;;;;15.37;13.10;;;;;;;;;;5057597;28;20224;-64
2022/10/10 01:53:20;;;;;;;15.17;13.53;;;;;;;;;;5047891;28;20205;-62
2022/10/10 01:55:47;;;;;;;15.77;13.73;;;;;;;;;;5051613;28;20263;-62
2022/10/10 01:58:18;;;;;;;16.93;13.40;;;;;;;;;;5050018;28;20928;-62
2022/10/10 02:00:58;;;;;;;14.93;13.10;;;;;;;;;;5057003;28;20202;-62
2022/10/10 02:03:28;;;;;;;17.60;13.30;;;;;;;;;;5050891;28;20314;-62
2022/10/10 02:06:06;;;;;;;15.43;13.20;;;;;;;;;;5048882;28;20194;-62
2022/10/10 02:08:34;;;;;;;15.97;12.43;;;;;;;;;;5043313;28;20201;-62
2022/10/10 02:11:06;;;;;;;18.83;13.53;;;;;;;;;;5055777;28;20217;-62
2022/10/10 02:13:48;;;;;;;20.07;13.27;;;;;;;;;;5053631;28;20218;-60
2022/10/10 02:16:22;;;;;;;15.80;12.97;;;;;;;;;;5059051;28;20777;-62
2022/10/10 02:18:51;;;;;;;15.97;12.73;;;;;;;;;;5062757;28;20231;-61
2022/10/10 02:21:18;;;;;;;17.23;12.57;;;;;;;;;;5063483;28;20198;-62
2022/10/10 02:23:47;;;;;;;16.03;12.83;;;;;;;;;;5061211;28;20621;-62
2022/10/10 02:26:16;;;;;;;16.17;12.70;;;;;;;;;;5059653;28;20743;-61
2022/10/10 02:28:52;;;;;;;15.57;12.27;;;;;;;;;;5055240;28;20289;-61
2022/10/10 02:31:40;;;;;;;16.80;12.70;;;;;;;;;;5057112;28;20646;-61
2022/10/10 02:34:16;;;;;;;15.30;12.50;;;;;;;;;;5056285;28;20229;-62
2022/10/10 02:36:49;;;;;;;17.47;12.43;;;;;;;;;;5060520;28;20629;-63
2022/10/10 02:39:17;;;;;;;14.50;12.17;;;;;;;;;;5062367;28;20217;-63
2022/10/10 02:41:45;;;;;;;13.60;12.17;;;;;;;;;;5069932;28;20288;-63
2022/10/10 02:44:13;;;;;;;14.00;11.93;;;;;;;;;;5063799;28;20655;-61
2022/10/10 02:46:41;;;;;;;13.90;11.47;;;;;;;;;;5059440;28;20305;-63
2022/10/10 02:49:09;;;;;;;19.40;11.73;;;;;;;;;;5048230;28;20203;-62
2022/10/10 02:51:36;;;;;;;12.70;10.63;;;;;;;;;;5051772;28;20690;-62
2022/10/10 02:54:04;;;;;;;12.00;10.80;;;;;;;;;;5058787;28;20205;-62
2022/10/10 02:56:31;;;;;;;12.00;10.50;;;;;;;;;;5057530;28;20382;-62
2022/10/10 02:58:58;;;;;;;15.10;11.27;;;;;;;;;;5058792;28;20228;-62
2022/10/10 03:01:25;;;;;;;13.87;10.90;;;;;;;;;;5058901;28;20550;-62
2022/10/10 03:03:53;;;;;;;13.90;10.80;;;;;;;;;;5063811;28;20212;-61
2022/10/10 03:06:20;;;;;;;12.23;10.53;;;;;;;;;;5059227;28;20687;-62
2022/10/10 03:08:47;;;;;;;17.57;11.03;;;;;;;;;;5058418;28;20205;-62
2022/10/10 03:11:16;;;;;;;13.63;10.80;;;;;;;;;;5057926;28;20619;-61
2022/10/10 03:13:43;;;;;;;15.80;11.20;;;;;;;;;;5061425;28;20216;-61
2022/10/10 03:16:11;;;;;;;15.10;11.43;;;;;;;;;;5049197;28;20332;-61
2022/10/10 03:18:38;;;;;;;20.30;12.47;;;;;;;;;;5066496;28;20616;-62
2022/10/10 03:21:06;;;;;;;15.10;11.60;;;;;;;;;;5062411;28;20288;-61
2022/10/10 03:23:34;;;;;;;13.90;11.17;;;;;;;;;;5059699;28;20683;-61
2022/10/10 03:26:02;;;;;;;14.37;11.57;;;;;;;;;;5054591;28;20293;-62
2022/10/10 03:28:29;;;;;;;12.37;10.50;;;;;;;;;;5056793;28;20301;-61
2022/10/10 03:30:57;;;;;;;13.17;10.40;;;;;;;;;;5052817;28;20210;-61
2022/10/10 03:33:27;;;;;;;12.83;10.53;;;;;;;;;;5053904;28;20307;-61
2022/10/10 03:35:55;;;;;;;13.10;9.67;;;;;;;;;;5056125;28;20213;-62
2022/10/10 03:38:22;;;;;;;15.97;10.57;;;;;;;;;;5059260;28;20931;-61
2022/10/10 03:40:49;;;;;;;13.03;9.10;;;;;;;;;;5061433;28;20665;-62
2022/10/10 03:43:17;;;;;;;10.83;9.27;;;;;;;;;;5058502;28;20203;-63
2022/10/10 03:45:46;;;;;;;15.97;13.00;;;;;;;;;;5050351;28;22047;-63
2022/10/10 03:48:14;;;;;;;15.80;12.70;;;;;;;;;;5061680;28;20233;-62
2022/10/10 03:50:42;;;;;;;12.30;10.90;;;;;;;;;;5062058;28;20625;-61
2022/10/10 03:53:09;;;;;;;13.17;10.23;;;;;;;;;;5055236;28;20300;-61
2022/10/10 03:55:39;;;;;;;14.27;10.27;;;;;;;;;;5054172;28;20299;-63
2022/10/10 03:58:07;;;;;;;13.43;10.43;;;;;;;;;;5049991;28;20240;-63
2022/10/10 04:00:34;;;;;;;12.63;9.20;;;;;;;;;;5054958;28;20663;-63
2022/10/10 04:03:05;;;;;;;12.13;9.97;;;;;;;;;;5047371;28;20678;-63
2022/10/10 04:05:37;;;;;;;12.77;9.87;;;;;;;;;;5062679;28;20214;-63
2022/10/10 04:08:05;;;;;;;10.93;9.37;;;;;;;;;;5049478;28;20325;-62
2022/10/10 04:10:32;;;;;;;16.27;10.83;;;;;;;;;;5040570;28;21191;-63
2022/10/10 04:12:59;;;;;;;13.53;10.90;;;;;;;;;;5050266;28;20262;-63
2022/10/10 04:15:27;;;;;;;15.60;11.10;;;;;;;;;;5058824;28;20247;-63
2022/10/10 04:17:54;;;;;;;12.53;10.47;;;;;;;;;;5066530;28;20236;-62
2022/10/10 04:20:21;;;;;;;12.57;10.53;;;;;;;;;;5054266;28;20292;-62
2022/10/10 04:22:49;;;;;;;14.43;10.47;;;;;;;;;;5050964;28;20212;-63
2022/10/10 04:25:16;;;;;;;12.87;10.20;;;;;;;;;;5056644;28;20295;-62
2022/10/10 04:27:44;;;;;;;13.17;10.73;;;;;;;;;;5053400;28;20279;-62
2022/10/10 04:30:11;;;;;;;12.00;10.57;;;;;;;;;;5054659;28;20726;-62
2022/10/10 04:32:39;;;;;;;13.27;10.30;;;;;;;;;;5054385;28;20292;-62
2022/10/10 04:35:06;;;;;;;11.80;10.60;;;;;;;;;;5058389;28;20328;-62
2022/10/10 04:37:34;;;;;;;16.40;11.30;;;;;;;;;;5054506;28;20339;-63
2022/10/10 04:40:01;;;;;;;14.37;10.87;;;;;;;;;;5065514;28;20223;-62
2022/10/10 04:42:29;;;;;;;12.67;11.10;;;;;;;;;;5055801;28;20434;-62
2022/10/10 04:44:57;;;;;;;15.27;10.70;;;;;;;;;;5052744;28;20293;-61
2022/10/10 04:47:25;;;;;;;15.47;10.77;;;;;;;;;;5052700;28;20568;-62
2022/10/10 04:49:52;;;;;;;15.90;11.80;;;;;;;;;;5054432;28;20196;-63
2022/10/10 04:52:20;;;;;;;13.07;11.20;;;;;;;;;;5052862;28;21046;-63
2022/10/10 04:54:47;;;;;;;14.03;11.07;;;;;;;;;;5054827;28;20288;-64
2022/10/10 04:57:14;;;;;;;14.10;11.90;;;;;;;;;;5055510;28;20225;-61
2022/10/10 04:59:42;;;;;;;13.50;11.57;;;;;;;;;;5052211;28;20234;-63
2022/10/10 05:02:10;;;;;;;13.50;11.43;;;;;;;;;;5052871;28;20216;-63
2022/10/10 05:04:37;;;;;;;14.17;10.63;;;;;;;;;;5054130;28;20234;-62
2022/10/10 05:07:05;;;;;;;12.93;11.63;;;;;;;;;;5056342;28;20275;-63
2022/10/10 05:09:32;;;;;;;14.97;11.83;;;;;;;;;;5058632;28;20257;-61
2022/10/10 05:12:00;;;;;;;15.27;11.33;;;;;;;;;;5052393;28;20197;-64
2022/10/10 05:14:27;;;;;;;16.47;10.53;;;;;;;;;;5056242;28;20340;-64
2022/10/10 05:16:54;;;;;;;13.40;9.97;;;;;;;;;;5056935;28;20241;-63
2022/10/10 05:19:22;;;;;;;15.83;10.60;;;;;;;;;;5057231;28;20260;-63
2022/10/10 05:21:49;;;;;;;13.33;9.90;;;;;;;;;;5055463;28;20636;-63
2022/10/10 05:24:16;;;;;;;12.67;10.90;;;;;;;;;;5055075;28;20284;-62
2022/10/10 05:26:44;;;;;;;11.73;10.53;;;;;;;;;;5054908;28;20593;-61
2022/10/10 05:29:12;;;;;;;13.70;11.30;;;;;;;;;;5056399;28;20981;-62
2022/10/10 05:31:39;;;;;;;14.50;10.93;;;;;;;;;;5050941;28;20198;-61
2022/10/10 05:34:06;;;;;;;13.87;11.43;;;;;;;;;;5051155;28;20220;-63
2022/10/10 05:36:34;;;;;;;13.30;11.40;;;;;;;;;;5055869;28;20236;-63
2022/10/10 05:39:02;;;;;;;14.93;12.77;;;;;;;;;;5053693;28;20356;-63
2022/10/10 05:41:29;;;;;;;12.00;9.47;;;;;;;;;;5054115;28;20297;-63
2022/10/10 05:43:56;;;;;;;12.17;9.63;;;;;;;;;;5053862;28;20197;-62
2022/10/10 05:46:25;;;;;;;13.17;9.37;;;;;;;;;;5055005;28;20290;-63
2022/10/10 05:48:53;;;;;;;12.70;10.00;;;;;;;;;;5051966;28;20205;-63
2022/10/10 05:51:20;;;;;;;13.93;11.43;;;;;;;;;;5056740;28;20288;-63
2022/10/10 05:53:48;;;;;;;12.53;10.93;;;;;;;;;;5055181;28;20224;-63
2022/10/10 05:56:16;;;;;;;15.77;12.30;;;;;;;;;;5052538;28;20224;-63
2022/10/10 05:58:44;;;;;;;11.53;10.13;;;;;;;;;;5057766;28;20225;-63
2022/10/10 06:01:12;;;;;;;10.50;9.50;;;;;;;;;;5051757;28;20325;-63
2022/10/10 06:03:39;;;;;;;10.10;8.43;;;;;;;;;;5055972;28;20201;-62
2022/10/10 06:06:07;;;;;;;10.67;7.93;;;;;;;;;;5051818;28;20229;-63
2022/10/10 06:08:35;;;;;;;10.07;8.07;;;;;;;;;;5055906;28;20205;-63
2022/10/10 06:11:03;;;;;;;9.40;7.87;;;;;;;;;;5067591;28;20283;-62
2022/10/10 06:13:31;;;;;;;8.73;6.57;;;;;;;;;;5062986;28;20686;-63
2022/10/10 06:15:58;;;;;;;8.70;6.47;;;;;;;;;;5071711;28;20206;-63
2022/10/10 06:18:25;;;;;;;10.33;6.33;;;;;;;;;;5081200;28;20298;-64
2022/10/10 06:20:53;;;;;;;9.20;6.70;;;;;;;;;;5070440;28;20198;-62
2022/10/10 06:23:20;;;;;;;8.87;6.30;;;;;;;;;;5069525;28;20485;-62
2022/10/10 06:25:51;;;;;;;10.93;6.47;;;;;;;;;;5061473;28;20234;-61
2022/10/10 06:28:21;;;;;;;10.20;6.60;;;;;;;;;;5062193;28;20279;-61
2022/10/10 06:30:50;;;;;;;6.93;5.73;;;;;;;;;;5063432;28;20348;-62
2022/10/10 06:33:18;;;;;;;12.43;6.70;;;;;;;;;;5062621;28;20666;-63
2022/10/10 06:35:46;;;;;;;15.43;7.10;;;;;;;;;;5059508;28;20274;-63
2022/10/10 06:38:15;;;;;;;10.43;6.60;;;;;;;;;;5053052;28;20232;-64
2022/10/10 06:40:42;;;;;;;7.93;6.23;;;;;;;;;;5049195;28;20302;-63
2022/10/10 06:43:11;;;;;;;11.03;6.07;;;;;;;;;;5074036;28;20284;-63
2022/10/10 06:45:39;;;;;;;8.83;6.73;;;;;;;;;;5063741;28;20204;-62
2022/10/10 06:48:07;;;;;;;7.03;6.30;;;;;;;;;;5055399;28;20256;-63
2022/10/10 06:50:35;;;;;;;6.23;5.63;;;;;;;;;;5060701;28;20298;-63
2022/10/10 06:53:02;;;;;;;7.90;5.70;;;;;;;;;;5060789;28;20826;-61
2022/10/10 06:55:30;;;;;;;7.13;5.73;;;;;;;;;;5062782;28;20217;-64
2022/10/10 06:57:57;;;;;;;6.80;5.57;;;;;;;;;;5063940;28;20251;-64
2022/10/10 07:00:25;;;;;;;7.53;5.93;;;;;;;;;;5056595;28;20296;-64
2022/10/10 07:02:52;;;;;;;7.87;5.83;;;;;;;;;;5051322;28;20290;-63
2022/10/10 07:05:20;;;;;;;6.43;5.60;;;;;;;;;;5066290;28;20210;-63
2022/10/10 07:07:47;;;;;;;7.63;5.35;;;;;;;;;;5049726;28;20253;-63
2022/10/10 07:10:15;;;;;;;6.37;5.77;;;;;;;;;;5051113;28;20213;-62
2022/10/10 07:12:42;;;;;;;9.83;6.00;;;;;;;;;;5048992;28;20583;-62
2022/10/10 07:15:11;;;;;;;7.00;4.93;;;;;;;;;;5057004;28;20202;-62
2022/10/10 07:17:39;;;;;;;7.30;5.47;;;;;;;;;;5053574;28;20852;-62
2022/10/10 07:20:07;;;;;;;9.25;5.60;;;;;;;;;;5072726;28;20304;-62
2022/10/10 07:22:34;;;;;;;6.77;5.03;;;;;;;;;;5059264;28;20224;-62
2022/10/10 07:25:01;;;;;;;6.47;5.13;;;;;;;;;;5055615;28;21226;-61
2022/10/10 07:27:29;;;;;;;6.40;4.95;;;;;;;;;;5069575;28;20663;-62
2022/10/10 07:29:56;;;;;;;7.22;5.75;;;;;;;;;;5073142;28;20300;-62
2022/10/10 07:32:24;;;;;;;7.45;5.25;;;;;;;;;;5053584;28;20256;-62
2022/10/10 07:34:52;;;;;;;7.00;5.18;;;;;;;;;;5073873;28;20296;-62
2022/10/10 07:37:19;;;;;;;6.53;5.00;;;;;;;;;;5073190;28;20260;-62
2022/10/10 07:39:47;;;;;;;5.30;4.78;;;;;;;;;;5075043;28;20221;-62
2022/10/10 07:42:14;;;;;;;6.47;4.93;;;;;;;;;;5069540;28;20289;-62
2022/10/10 07:44:41;;;;;;;5.43;4.50;;;;;;;;;;5053119;28;20573;-62
2022/10/10 07:47:09;;;;;;;5.13;4.63;;;;;;;;;;5078443;28;20222;-62
2022/10/10 07:49:36;;;;;;;5.95;5.20;;;;;;;;;;5062860;28;20664;-62
2022/10/10 07:52:03;;;;;;;5.10;4.60;;;;;;;;;;5054875;28;20200;-61
2022/10/10 07:54:31;;;;;;;8.50;4.83;;;;;;;;;;5059081;28;20798;-62
2022/10/10 07:56:58;;;;;;;5.78;4.40;;;;;;;;;;5068931;28;20239;-61
2022/10/10 07:59:26;;;;;;;8.25;4.70;;;;;;;;;;5055181;28;20220;-63
2022/10/10 08:01:53;;;;;;;8.27;4.50;;;;;;;;;;5052299;28;20201;-63
2022/10/10 08:04:20;;;;;;;6.05;4.63;;;;;;;;;;5052366;28;20755;-61
2022/10/10 08:06:48;;;;;;;3.88;3.58;;;;;;;;;;5046662;28;20222;-63
2022/10/10 08:09:15;;;;;;;6.15;3.70;;;;;;;;;;5055259;28;20215;-63
2022/10/10 08:11:42;;;;;;;6.03;3.53;;;;;;;;;;5061449;28;20230;-63
2022/10/10 08:14:10;;;;;;;7.15;3.45;;;;;;;;;;5069064;28;20218;-62
2022/10/10 08:16:37;;;;;;;7.13;3.55;;;;;;;;;;5051973;28;20218;-62
2022/10/10 08:19:04;;;;;;;4.35;3.17;;;;;;;;;;5049775;28;21623;-61
2022/10/10 08:21:34;;;;;;;4.75;3.33;;;;;;;;;;5057601;28;20209;-61
2022/10/10 08:24:02;;;;;;;6.05;3.22;;;;;;;;;;5055864;28;22494;-63
2022/10/10 08:26:29;;;;;;;5.78;3.53;;;;;;;;;;5060789;28;20267;-61
2022/10/10 08:28:57;;;;;;;3.42;2.92;;;;;;;;;;5061351;28;20698;-63
2022/10/10 08:31:24;;;;;;;4.78;3.20;;;;;;;;;;5054978;28;20208;-61
2022/10/10 08:33:51;;;;;;;5.20;3.03;;;;;;;;;;5058794;28;20739;-61
2022/10/10 08:36:23;;;;;;;5.35;3.33;;;;;;;;;;5053574;28;20232;-62
2022/10/10 08:38:55;;;;;;;3.80;3.42;;;;;;;;;;5054609;28;20726;-62
2022/10/10 08:41:32;;;;;;;5.47;2.97;;;;;;;;;;5054742;28;20205;-62
2022/10/10 08:44:06;;;;;;;7.28;2.95;;;;;;;;;;5049679;28;20208;-62
2022/10/10 08:46:43;;;;;;;7.10;2.90;;;;;;;;;;5052266;28;20221;-62
2022/10/10 08:49:34;;;;;;;6.18;3.05;;;;;;;;;;5049790;28;20216;-61
2022/10/10 08:52:04;;;;;;;5.22;3.20;;;;;;;;;;5043582;28;20245;-61
2022/10/10 08:54:32;;;;;;;6.97;3.90;;;;;;;;;;5071895;28;20240;-61
2022/10/10 08:57:01;;;;;;;7.57;3.55;;;;;;;;;;5053704;28;20414;-61
2022/10/10 08:59:35;;;;;;;5.47;3.05;;;;;;;;;;5064493;28;20229;-61
2022/10/10 09:02:34;;;;;;;3.42;2.90;;;;;;;;;;5061189;28;20209;-63
2022/10/10 09:05:31;;;;;;;3.42;2.83;;;;;;;;;;5023579;28;20210;-62
2022/10/10 09:08:17;;;;;;;4.60;3.25;;;;;;;;;;5070221;28;20311;-62
2022/10/10 09:11:00;;;;;;;6.70;3.67;;;;;;;;;;5050238;28;20251;-63
2022/10/10 09:13:28;;;;;;;4.30;3.53;;;;;;;;;;5052791;28;20217;-62
2022/10/10 09:16:00;;;;;;;6.68;3.65;;;;;;;;;;5072761;28;20201;-62
2022/10/10 09:18:51;;;;;;;4.93;3.70;;;;;;;;;;5058213;28;20284;-62
2022/10/10 09:21:25;;;;;;;6.90;3.50;;;;;;;;;;5042367;28;20206;-63
2022/10/10 09:24:18;;;;;;;7.07;3.70;;;;;;;;;;5052913;28;20194;-62
2022/10/10 09:26:51;;;;;;;5.93;4.05;;;;;;;;;;5028556;28;20228;-62
2022/10/10 09:29:18;;;;;;;6.32;3.58;;;;;;;;;;5052308;28;20213;-62
2022/10/10 09:31:49;;;;;;;5.63;4.85;;;;;;;;;;5046426;28;20304;-62
2022/10/10 09:34:20;;;;;;;6.45;4.47;;;;;;;;;;5056602;28;20208;-62
2022/10/10 09:36:48;;;;;;;7.72;4.65;;;;;;;;;;5066872;28;20225;-62
2022/10/10 09:39:18;;;;;;;8.18;5.68;;;;;;;;;;5051171;28;20336;-63
2022/10/10 09:41:50;;;;;;;9.68;6.50;;;;;;;;;;5046886;28;20220;-62
2022/10/10 09:44:19;;;;;;;8.95;6.07;;;;;;;;;;5052826;28;20247;-62
2022/10/10 09:46:47;;;;;;;9.77;5.45;;;;;;;;;;5068504;28;20317;-63
2022/10/10 09:49:16;;;;;;;9.80;5.32;;;;;;;;;;5061354;28;20353;-62
2022/10/10 09:51:43;;;;;;;6.50;4.97;;;;;;;;;;5050486;28;20252;-62
2022/10/10 09:54:12;;;;;;;9.85;5.22;;;;;;;;;;5059075;28;20219;-63
2022/10/10 09:56:43;;;;;;;9.07;5.43;;;;;;;;;;5059964;28;20235;-62
2022/10/10 09:59:30;;;;;;;5.40;4.85;;;;;;;;;;5074546;28;20774;-62
2022/10/10 10:02:03;;;;;;;6.63;4.97;;;;;;;;;;5059690;28;20232;-62
2022/10/10 10:04:32;;;;;;;6.47;5.20;;;;;;;;;;5065244;28;20201;-62
2022/10/10 10:07:05;;;;;;;8.18;5.28;;;;;;;;;;5057846;28;20216;-62
2022/10/10 10:09:32;;;;;;;8.07;5.47;;;;;;;;;;5049081;28;20305;-62
2022/10/10 10:12:00;;;;;;;8.93;5.60;;;;;;;;;;5055666;28;20816;-62
2022/10/10 10:14:29;;;;;;;10.50;4.70;;;;;;;;;;5065209;28;20251;-63
2022/10/10 10:17:05;;;;;;;7.00;4.90;;;;;;;;;;5053039;28;20233;-63
2022/10/10 10:19:39;;;;;;;6.55;4.80;;;;;;;;;;5058939;28;20349;-63
2022/10/10 10:22:36;;;;;;;9.90;4.90;;;;;;;;;;5056890;28;20232;-62
2022/10/10 10:25:39;;;;;;;5.68;4.05;;;;;;;;;;5061899;28;20271;-62
2022/10/10 10:28:19;;;;;;;8.18;4.60;;;;;;;;;;4952892;28;20998;-62
2022/10/10 10:30:47;;;;;;;6.28;5.03;;;;;;;;;;5039977;28;20225;-63
2022/10/10 10:33:17;;;;;;;5.35;4.32;;;;;;;;;;5052027;28;20198;-62
2022/10/10 10:36:01;;;;;;;8.27;4.07;;;;;;;;;;5047107;28;20563;-63
2022/10/10 10:38:47;;;;;;;7.38;4.85;;;;;;;;;;5079390;28;20201;-63
2022/10/10 10:41:15;;;;;;;6.80;4.20;;;;;;;;;;5065267;28;20691;-62
2022/10/10 10:44:01;;;;;;;9.48;4.90;;;;;;;;;;5058514;28;20566;-62
2022/10/10 10:46:34;;;;;;;7.03;4.78;;;;;;;;;;5063689;28;21212;-63
2022/10/10 10:49:20;;;;;;;6.68;5.00;;;;;;;;;;5074748;28;20205;-62
2022/10/10 10:52:10;;;;;;;6.63;4.22;;;;;;;;;;5071781;28;20216;-63
2022/10/10 10:54:44;;;;;;;5.88;4.25;;;;;;;;;;5062333;28;20292;-63
2022/10/10 10:57:30;;;;;;;7.53;4.20;;;;;;;;;;5079139;28;20225;-62
2022/10/10 11:00:17;;;;;;;5.75;4.47;;;;;;;;;;5059828;28;20229;-64
2022/10/10 11:03:27;;;;;;;5.95;4.18;;;;;;;;;;5067394;28;20201;-62
2022/10/10 11:06:23;;;;;;;7.85;4.10;;;;;;;;;;5057764;28;20198;-63
2022/10/10 11:08:54;;;;;;;5.93;4.40;;;;;;;;;;5060172;28;20208;-63
2022/10/10 11:11:44;;;;;;;5.78;4.28;;;;;;;;;;5065062;28;20668;-63
2022/10/10 11:14:11;;;;;;;9.50;4.82;;;;;;;;;;5065725;28;20244;-62
2022/10/10 11:17:05;;;;;;;6.18;4.88;;;;;;;;;;5065412;28;20316;-62
2022/10/10 11:19:36;;;;;;;7.22;4.80;;;;;;;;;;5078236;28;20707;-62
2022/10/10 11:22:09;;;;;;;6.82;4.80;;;;;;;;;;5063392;28;20202;-62
2022/10/10 11:24:52;;;;;;;6.65;4.40;;;;;;;;;;5055465;28;20267;-62
2022/10/10 11:27:29;;;;;;;9.30;4.00;;;;;;;;;;5076555;28;20222;-62
2022/10/10 11:30:04;;;;;;;6.78;4.10;;;;;;;;;;5058479;28;20204;-62
2022/10/10 11:32:52;;;;;;;8.07;3.60;;;;;;;;;;5060054;28;20204;-63
2022/10/10 11:35:22;;;;;;;6.78;3.63;;;;;;;;;;5008327;28;20201;-63
2022/10/10 11:37:57;;;;;;;6.35;3.35;;;;;;;;;;5053746;28;20316;-63
2022/10/10 11:40:43;;;;;;;6.63;3.40;;;;;;;;;;5076628;28;20213;-62
2022/10/10 11:43:20;;;;;;;7.22;3.40;;;;;;;;;;5056013;28;20237;-61
2022/10/10 11:45:50;;;;;;;7.90;3.20;;;;;;;;;;5052946;28;20206;-61
2022/10/10 11:48:29;;;;;;;5.55;3.00;;;;;;;;;;5059077;28;20228;-62
2022/10/10 11:50:59;;;;;;;6.30;3.53;;;;;;;;;;5062902;28;20200;-61
2022/10/10 11:53:31;;;;;;;5.85;3.42;;;;;;;;;;5061727;28;20293;-63
2022/10/10 11:56:04;;;;;;;5.72;3.15;;;;;;;;;;5070639;28;20210;-63
2022/10/10 11:58:31;;;;;;;7.15;3.15;;;;;;;;;;5066781;28;20664;-62
2022/10/10 12:01:04;;;;;;;4.68;3.30;;;;;;;;;;5080121;28;20229;-62
2022/10/10 12:03:31;;;;;;;7.70;3.10;;;;;;;;;;5049840;28;20206;-63
2022/10/10 12:06:01;;;;;;;8.13;3.35;;;;;;;;;;5060303;28;20593;-64
2022/10/10 12:08:33;;;;;;;6.13;3.10;;;;;;;;;;5074737;28;20205;-63
2022/10/10 12:11:20;;;;;;;6.90;3.20;;;;;;;;;;5055763;28;20199;-61
2022/10/10 12:13:59;;;;;;;5.00;2.70;;;;;;;;;;5046172;28;20239;-63
2022/10/10 12:16:28;;;;;;;11.73;3.53;;;;;;;;;;5066288;28;20316;-63
2022/10/10 12:19:16;;;;;;;7.93;2.95;;;;;;;;;;5071290;28;20217;-63
2022/10/10 12:21:52;;;;;;;11.02;2.65;;;;;;;;;;5060926;28;20212;-64
2022/10/10 12:24:20;;;;;;;8.93;3.30;;;;;;;;;;5070251;28;20220;-62
2022/10/10 12:26:54;;;;;;;5.57;2.80;;;;;;;;;;5063693;28;20730;-62
2022/10/10 12:29:41;;;;;;;8.27;3.20;;;;;;;;;;5064005;28;20201;-63
2022/10/10 12:32:16;;;;;;;8.18;2.70;;;;;;;;;;5056709;28;20304;-63
2022/10/10 12:34:43;;;;;;;7.10;2.95;;;;;;;;;;5065337;28;20728;-62
2022/10/10 12:37:20;;;;;;;13.13;3.60;;;;;;;;;;5074638;28;20249;-64
2022/10/10 12:40:07;;;;;;;6.75;2.90;;;;;;;;;;5053807;28;20287;-62
2022/10/10 12:42:38;;;;;;;8.93;2.97;;;;;;;;;;5054904;28;20289;-63
2022/10/10 12:45:24;;;;;;;10.07;2.70;;;;;;;;;;5056930;28;20241;-62
2022/10/10 12:47:52;;;;;;;7.63;3.00;;;;;;;;;;5061190;28;20296;-64
2022/10/10 12:50:38;;;;;;;6.43;2.90;;;;;;;;;;5056695;28;20210;-64
2022/10/10 12:53:12;;;;;;;9.00;3.20;;;;;;;;;;5056686;28;20286;-62
2022/10/10 12:55:41;;;;;;;8.38;2.95;;;;;;;;;;5057019;28;20229;-62
2022/10/10 12:58:14;;;;;;;7.35;3.22;;;;;;;;;;5056417;28;20252;-62
2022/10/10 13:00:54;;;;;;;6.15;3.10;;;;;;;;;;5053108;28;20228;-62
2022/10/10 13:03:24;;;;;;;9.90;3.38;;;;;;;;;;5055907;28;20237;-62
2022/10/10 13:05:58;;;;;;;7.28;2.75;;;;;;;;;;5054303;28;20193;-61
2022/10/10 13:08:27;;;;;;;9.05;2.80;;;;;;;;;;5055650;28;20652;-63
2022/10/10 13:11:05;;;;;;;8.20;3.25;;;;;;;;;;5072199;28;20328;-63
2022/10/10 13:13:32;;;;;;;10.05;3.20;;;;;;;;;;5058637;28;20296;-63
2022/10/10 13:16:05;;;;;;;7.78;2.75;;;;;;;;;;5056283;28;20205;-63
2022/10/10 13:18:33;;;;;;;10.05;2.83;;;;;;;;;;5060283;28;20202;-64
2022/10/10 13:21:01;;;;;;;6.38;2.70;;;;;;;;;;5079099;28;20267;-61
2022/10/10 13:23:29;;;;;;;8.00;2.92;;;;;;;;;;5058523;28;20208;-64
2022/10/10 13:25:57;;;;;;;6.43;2.75;;;;;;;;;;5065374;28;20220;-62
2022/10/10 13:28:24;;;;;;;8.40;3.08;;;;;;;;;;5056347;28;20585;-63
2022/10/10 13:30:52;;;;;;;10.38;3.28;;;;;;;;;;5075711;28;20671;-61
2022/10/10 13:33:33;;;;;;;8.15;2.90;;;;;;;;;;5068586;28;20205;-62
2022/10/10 13:36:08;;;;;;;8.32;3.08;;;;;;;;;;5061002;28;20213;-61
2022/10/10 13:38:35;;;;;;;7.65;2.78;;;;;;;;;;5052543;28;20285;-62
2022/10/10 13:41:03;;;;;;;6.93;2.95;;;;;;;;;;5059789;28;21395;-62
2022/10/10 13:43:32;;;;;;;9.82;3.00;;;;;;;;;;5056766;28;20201;-62
2022/10/10 13:46:01;;;;;;;6.40;2.55;;;;;;;;;;5055070;28;20316;-62
2022/10/10 13:48:38;;;;;;;5.32;2.78;;;;;;;;;;5055565;28;20208;-62
2022/10/10 13:51:07;;;;;;;10.07;2.90;;;;;;;;;;5056623;28;20201;-62
2022/10/10 13:53:36;;;;;;;9.45;2.63;;;;;;;;;;5065130;28;20202;-62
2022/10/10 13:56:06;;;;;;;8.25;2.90;;;;;;;;;;5060279;28;20293;-63
2022/10/10 13:58:40;;;;;;;9.73;2.72;;;;;;;;;;5058814;28;20291;-62
2022/10/10 14:01:21;;;;;;;5.55;2.65;;;;;;;;;;5057798;28;20253;-62
2022/10/10 14:03:50;;;;;;;8.30;2.67;;;;;;;;;;5054004;28;20210;-63
2022/10/10 14:06:21;;;;;;;3.13;2.50;;;;;;;;;;5075287;28;20214;-64
2022/10/10 14:08:49;;;;;;;6.43;2.70;;;;;;;;;;5064687;28;20976;-61
2022/10/10 14:11:21;;;;;;;6.43;2.75;;;;;;;;;;5053392;28;20305;-62
2022/10/10 14:14:15;;;;;;;8.20;3.00;;;;;;;;;;5066484;28;20305;-62
2022/10/10 14:16:43;;;;;;;7.55;2.65;;;;;;;;;;5056974;28;20807;-62
2022/10/10 14:19:29;;;;;;;6.72;2.30;;;;;;;;;;5051643;28;20202;-62
2022/10/10 14:21:56;;;;;;;8.90;2.70;;;;;;;;;;5059147;28;20225;-62
2022/10/10 14:24:24;;;;;;;5.63;2.60;;;;;;;;;;5041365;28;20223;-64
2022/10/10 14:26:51;;;;;;;6.70;2.80;;;;;;;;;;5057511;28;20315;-61
2022/10/10 14:29:19;;;;;;;11.38;2.90;;;;;;;;;;5057015;28;20283;-64
2022/10/10 14:31:46;;;;;;;6.13;2.65;;;;;;;;;;5071700;28;20209;-62
2022/10/10 14:34:14;;;;;;;8.90;2.60;;;;;;;;;;5054194;28;20671;-63
2022/10/10 14:36:45;;;;;;;5.35;2.55;;;;;;;;;;5061200;28;20220;-64
2022/10/10 14:39:14;;;;;;;9.52;2.78;;;;;;;;;;5057868;28;20263;-63
2022/10/10 14:41:42;;;;;;;8.13;2.83;;;;;;;;;;5064655;28;20307;-64
2022/10/10 14:44:10;;;;;;;5.78;2.80;;;;;;;;;;5059353;28;20618;-62
2022/10/10 14:46:38;;;;;;;6.13;2.80;;;;;;;;;;5063724;28;20641;-62
2022/10/10 14:49:06;;;;;;;7.55;2.63;;;;;;;;;;5058706;28;20292;-63
2022/10/10 14:51:39;;;;;;;5.95;2.65;;;;;;;;;;5067643;28;20209;-61
2022/10/10 14:54:06;;;;;;;7.85;2.58;;;;;;;;;;5079691;28;20231;-62
2022/10/10 14:56:40;;;;;;;7.97;3.20;;;;;;;;;;5061939;28;20287;-62